sensor_id;sensor_type;location;lat;lon;timestamp;P1;durP1;ratioP1;P2;durP2;ratioP2
68214;SDS011;55036;52.138;5.236;2023-09-12T00:00:44;45.28;;;30.08;;
68214;SDS011;55036;52.138;5.236;2023-09-12T00:03:11;42.28;;;30.10;;
68214;SDS011;55036;52.138;5.236;2023-09-12T00:05:38;41.20;;;28.73;;
68214;SDS011;55036;52.138;5.236;2023-09-12T00:08:05;45.95;;;30.67;;
68214;SDS011;55036;52.138;5.236;2023-09-12T00:10:32;47.60;;;30.92;;
68214;SDS011;55036;52.138;5.236;2023-09-12T00:12:59;48.15;;;30.80;;
68214;SDS011;55036;52.138;5.236;2023-09-12T00:15:27;45.00;;;30.23;;
68214;SDS011;55036;52.138;5.236;2023-09-12T00:17:54;41.85;;;29.17;;
68214;SDS011;55036;52.138;5.236;2023-09-12T00:20:21;43.70;;;30.23;;
68214;SDS011;55036;52.138;5.236;2023-09-12T00:22:47;46.67;;;30.42;;
68214;SDS011;55036;52.138;5.236;2023-09-12T00:25:14;42.80;;;28.90;;
68214;SDS011;55036;52.138;5.236;2023-09-12T00:27:41;40.75;;;28.08;;
68214;SDS011;55036;52.138;5.236;2023-09-12T00:30:08;39.92;;;27.83;;
68214;SDS011;55036;52.138;5.236;2023-09-12T00:32:35;42.33;;;28.92;;
68214;SDS011;55036;52.138;5.236;2023-09-12T00:35:02;45.65;;;28.33;;
68214;SDS011;55036;52.138;5.236;2023-09-12T00:37:29;43.28;;;28.85;;
68214;SDS011;55036;52.138;5.236;2023-09-12T00:39:56;41.28;;;27.77;;
68214;SDS011;55036;52.138;5.236;2023-09-12T01:20:30;34.65;;;23.63;;
68214;SDS011;55036;52.138;5.236;2023-09-12T01:23:24;38.92;;;26.77;;
68214;SDS011;55036;52.138;5.236;2023-09-12T01:31:21;36.10;;;23.92;;
68214;SDS011;55036;52.138;5.236;2023-09-12T01:33:54;34.50;;;24.52;;
68214;SDS011;55036;52.138;5.236;2023-09-12T01:36:22;35.58;;;23.63;;
68214;SDS011;55036;52.138;5.236;2023-09-12T01:38:48;34.30;;;24.42;;
68214;SDS011;55036;52.138;5.236;2023-09-12T01:41:15;34.75;;;24.58;;
68214;SDS011;55036;52.138;5.236;2023-09-12T01:43:42;37.30;;;24.80;;
68214;SDS011;55036;52.138;5.236;2023-09-12T01:46:09;34.40;;;24.85;;
68214;SDS011;55036;52.138;5.236;2023-09-12T01:48:36;35.65;;;24.02;;
68214;SDS011;55036;52.138;5.236;2023-09-12T01:51:04;38.65;;;25.42;;
68214;SDS011;55036;52.138;5.236;2023-09-12T01:53:33;45.42;;;26.13;;
68214;SDS011;55036;52.138;5.236;2023-09-12T01:56:02;43.40;;;27.75;;
68214;SDS011;55036;52.138;5.236;2023-09-12T01:58:29;39.47;;;26.63;;
68214;SDS011;55036;52.138;5.236;2023-09-12T02:00:57;49.78;;;28.80;;
68214;SDS011;55036;52.138;5.236;2023-09-12T02:03:24;59.08;;;29.98;;
68214;SDS011;55036;52.138;5.236;2023-09-12T02:05:51;52.88;;;28.90;;
68214;SDS011;55036;52.138;5.236;2023-09-12T02:08:18;45.17;;;28.85;;
68214;SDS011;55036;52.138;5.236;2023-09-12T02:10:45;65.55;;;28.90;;
68214;SDS011;55036;52.138;5.236;2023-09-12T02:13:11;57.22;;;28.77;;
68214;SDS011;55036;52.138;5.236;2023-09-12T02:15:38;56.42;;;28.42;;
68214;SDS011;55036;52.138;5.236;2023-09-12T02:18:05;74.15;;;29.10;;
68214;SDS011;55036;52.138;5.236;2023-09-12T02:20:32;42.88;;;28.20;;
68214;SDS011;55036;52.138;5.236;2023-09-12T02:22:59;76.40;;;29.35;;
68214;SDS011;55036;52.138;5.236;2023-09-12T02:25:25;70.30;;;28.33;;
68214;SDS011;55036;52.138;5.236;2023-09-12T02:27:52;63.90;;;28.90;;
68214;SDS011;55036;52.138;5.236;2023-09-12T02:30:19;46.65;;;28.60;;
68214;SDS011;55036;52.138;5.236;2023-09-12T02:32:46;52.25;;;28.92;;
68214;SDS011;55036;52.138;5.236;2023-09-12T02:35:13;47.58;;;29.13;;
68214;SDS011;55036;52.138;5.236;2023-09-12T02:37:40;70.30;;;27.67;;
68214;SDS011;55036;52.138;5.236;2023-09-12T02:40:07;52.53;;;27.63;;
68214;SDS011;55036;52.138;5.236;2023-09-12T02:42:37;145.48;;;28.65;;
68214;SDS011;55036;52.138;5.236;2023-09-12T02:45:04;62.47;;;27.95;;
68214;SDS011;55036;52.138;5.236;2023-09-12T02:47:31;47.97;;;27.65;;
68214;SDS011;55036;52.138;5.236;2023-09-12T02:49:58;71.70;;;28.83;;
68214;SDS011;55036;52.138;5.236;2023-09-12T02:52:25;64.63;;;29.05;;
68214;SDS011;55036;52.138;5.236;2023-09-12T02:54:52;67.05;;;30.67;;
68214;SDS011;55036;52.138;5.236;2023-09-12T02:57:18;45.38;;;28.58;;
68214;SDS011;55036;52.138;5.236;2023-09-12T02:59:45;60.78;;;29.45;;
68214;SDS011;55036;52.138;5.236;2023-09-12T03:02:12;64.30;;;30.42;;
68214;SDS011;55036;52.138;5.236;2023-09-12T03:04:39;56.05;;;29.25;;
68214;SDS011;55036;52.138;5.236;2023-09-12T03:07:06;66.40;;;29.83;;
68214;SDS011;55036;52.138;5.236;2023-09-12T03:09:32;71.88;;;29.48;;
68214;SDS011;55036;52.138;5.236;2023-09-12T03:12:02;51.30;;;28.77;;
68214;SDS011;55036;52.138;5.236;2023-09-12T03:14:30;48.75;;;29.42;;
68214;SDS011;55036;52.138;5.236;2023-09-12T03:16:57;64.15;;;30.15;;
68214;SDS011;55036;52.138;5.236;2023-09-12T03:19:24;68.15;;;30.83;;
68214;SDS011;55036;52.138;5.236;2023-09-12T03:21:51;53.65;;;31.20;;
68214;SDS011;55036;52.138;5.236;2023-09-12T03:24:18;59.38;;;31.10;;
68214;SDS011;55036;52.138;5.236;2023-09-12T03:26:45;63.92;;;33.08;;
68214;SDS011;55036;52.138;5.236;2023-09-12T03:29:11;61.53;;;31.67;;
68214;SDS011;55036;52.138;5.236;2023-09-12T03:31:38;65.45;;;33.78;;
68214;SDS011;55036;52.138;5.236;2023-09-12T03:34:05;48.17;;;32.95;;
68214;SDS011;55036;52.138;5.236;2023-09-12T03:36:32;62.22;;;34.28;;
68214;SDS011;55036;52.138;5.236;2023-09-12T03:38:58;59.85;;;33.50;;
68214;SDS011;55036;52.138;5.236;2023-09-12T03:41:25;55.20;;;34.00;;
68214;SDS011;55036;52.138;5.236;2023-09-12T03:43:53;167.75;;;36.08;;
68214;SDS011;55036;52.138;5.236;2023-09-12T03:46:20;52.72;;;33.40;;
68214;SDS011;55036;52.138;5.236;2023-09-12T03:48:48;53.92;;;34.10;;
68214;SDS011;55036;52.138;5.236;2023-09-12T03:51:15;62.78;;;35.08;;
68214;SDS011;55036;52.138;5.236;2023-09-12T03:53:42;56.80;;;34.85;;
68214;SDS011;55036;52.138;5.236;2023-09-12T03:56:08;54.05;;;34.35;;
68214;SDS011;55036;52.138;5.236;2023-09-12T03:58:38;81.95;;;34.67;;
68214;SDS011;55036;52.138;5.236;2023-09-12T04:01:06;56.95;;;33.30;;
68214;SDS011;55036;52.138;5.236;2023-09-12T04:03:33;49.38;;;33.08;;
68214;SDS011;55036;52.138;5.236;2023-09-12T04:06:00;48.00;;;34.10;;
68214;SDS011;55036;52.138;5.236;2023-09-12T04:08:27;49.30;;;34.75;;
68214;SDS011;55036;52.138;5.236;2023-09-12T04:10:53;54.35;;;34.92;;
68214;SDS011;55036;52.138;5.236;2023-09-12T04:13:20;53.10;;;33.92;;
68214;SDS011;55036;52.138;5.236;2023-09-12T04:15:47;53.25;;;33.28;;
68214;SDS011;55036;52.138;5.236;2023-09-12T04:18:14;56.80;;;34.90;;
68214;SDS011;55036;52.138;5.236;2023-09-12T04:20:41;54.30;;;34.28;;
68214;SDS011;55036;52.138;5.236;2023-09-12T04:23:08;54.03;;;35.13;;
68214;SDS011;55036;52.138;5.236;2023-09-12T04:25:35;50.22;;;34.08;;
68214;SDS011;55036;52.138;5.236;2023-09-12T04:28:02;52.42;;;35.45;;
68214;SDS011;55036;52.138;5.236;2023-09-12T04:30:28;61.72;;;36.35;;
68214;SDS011;55036;52.138;5.236;2023-09-12T04:32:55;56.50;;;37.13;;
68214;SDS011;55036;52.138;5.236;2023-09-12T04:35:22;59.88;;;35.53;;
68214;SDS011;55036;52.138;5.236;2023-09-12T04:37:51;54.08;;;33.72;;
68214;SDS011;55036;52.138;5.236;2023-09-12T04:40:18;50.65;;;34.15;;
68214;SDS011;55036;52.138;5.236;2023-09-12T04:42:44;53.40;;;34.20;;
68214;SDS011;55036;52.138;5.236;2023-09-12T04:45:11;49.90;;;34.38;;
68214;SDS011;55036;52.138;5.236;2023-09-12T04:47:38;55.35;;;34.15;;
68214;SDS011;55036;52.138;5.236;2023-09-12T04:50:05;54.05;;;34.13;;
68214;SDS011;55036;52.138;5.236;2023-09-12T04:52:32;49.22;;;33.42;;
68214;SDS011;55036;52.138;5.236;2023-09-12T04:54:59;49.55;;;32.50;;
68214;SDS011;55036;52.138;5.236;2023-09-12T04:57:27;49.17;;;33.88;;
68214;SDS011;55036;52.138;5.236;2023-09-12T04:59:57;56.40;;;34.85;;
68214;SDS011;55036;52.138;5.236;2023-09-12T05:02:24;48.85;;;32.53;;
68214;SDS011;55036;52.138;5.236;2023-09-12T05:04:51;55.75;;;35.22;;
68214;SDS011;55036;52.138;5.236;2023-09-12T05:07:18;56.13;;;36.47;;
68214;SDS011;55036;52.138;5.236;2023-09-12T05:09:45;51.40;;;33.70;;
68214;SDS011;55036;52.138;5.236;2023-09-12T05:12:12;53.92;;;34.70;;
68214;SDS011;55036;52.138;5.236;2023-09-12T05:14:40;51.92;;;33.92;;
68214;SDS011;55036;52.138;5.236;2023-09-12T05:17:07;55.95;;;35.33;;
68214;SDS011;55036;52.138;5.236;2023-09-12T05:19:33;55.33;;;35.47;;
68214;SDS011;55036;52.138;5.236;2023-09-12T05:22:00;56.40;;;34.78;;
68214;SDS011;55036;52.138;5.236;2023-09-12T05:24:27;48.58;;;33.15;;
68214;SDS011;55036;52.138;5.236;2023-09-12T05:26:54;55.15;;;35.15;;
68214;SDS011;55036;52.138;5.236;2023-09-12T05:29:20;50.70;;;32.80;;
68214;SDS011;55036;52.138;5.236;2023-09-12T05:31:47;51.13;;;34.05;;
68214;SDS011;55036;52.138;5.236;2023-09-12T05:34:14;50.60;;;33.42;;
68214;SDS011;55036;52.138;5.236;2023-09-12T05:36:41;51.58;;;35.35;;
68214;SDS011;55036;52.138;5.236;2023-09-12T05:39:08;55.20;;;35.40;;
68214;SDS011;55036;52.138;5.236;2023-09-12T05:41:35;56.25;;;36.25;;
68214;SDS011;55036;52.138;5.236;2023-09-12T05:44:02;53.10;;;34.42;;
68214;SDS011;55036;52.138;5.236;2023-09-12T05:46:29;54.05;;;35.72;;
68214;SDS011;55036;52.138;5.236;2023-09-12T05:48:56;54.28;;;36.72;;
68214;SDS011;55036;52.138;5.236;2023-09-12T05:51:23;55.45;;;35.65;;
68214;SDS011;55036;52.138;5.236;2023-09-12T05:53:50;54.15;;;34.63;;
68214;SDS011;55036;52.138;5.236;2023-09-12T05:56:17;54.80;;;34.88;;
68214;SDS011;55036;52.138;5.236;2023-09-12T05:58:44;61.33;;;37.03;;
68214;SDS011;55036;52.138;5.236;2023-09-12T06:01:10;59.05;;;37.65;;
68214;SDS011;55036;52.138;5.236;2023-09-12T06:03:37;58.33;;;34.60;;
68214;SDS011;55036;52.138;5.236;2023-09-12T06:06:05;61.28;;;35.03;;
68214;SDS011;55036;52.138;5.236;2023-09-12T06:08:31;64.25;;;36.33;;
68214;SDS011;55036;52.138;5.236;2023-09-12T06:10:58;66.80;;;36.45;;
68214;SDS011;55036;52.138;5.236;2023-09-12T06:13:25;58.92;;;37.38;;
68214;SDS011;55036;52.138;5.236;2023-09-12T06:15:52;57.90;;;35.78;;
68214;SDS011;55036;52.138;5.236;2023-09-12T06:18:18;60.53;;;36.03;;
68214;SDS011;55036;52.138;5.236;2023-09-12T06:20:46;62.70;;;37.40;;
68214;SDS011;55036;52.138;5.236;2023-09-12T06:23:13;59.97;;;37.38;;
68214;SDS011;55036;52.138;5.236;2023-09-12T06:25:40;57.58;;;36.88;;
68214;SDS011;55036;52.138;5.236;2023-09-12T06:28:08;67.22;;;38.28;;
68214;SDS011;55036;52.138;5.236;2023-09-12T06:30:36;55.63;;;35.80;;
68214;SDS011;55036;52.138;5.236;2023-09-12T06:33:03;55.25;;;35.30;;
68214;SDS011;55036;52.138;5.236;2023-09-12T06:35:31;57.33;;;33.83;;
68214;SDS011;55036;52.138;5.236;2023-09-12T06:37:58;57.35;;;36.65;;
68214;SDS011;55036;52.138;5.236;2023-09-12T06:40:25;30.45;;;21.92;;
68214;SDS011;55036;52.138;5.236;2023-09-12T06:42:52;49.55;;;33.38;;
68214;SDS011;55036;52.138;5.236;2023-09-12T06:45:18;47.53;;;31.65;;
68214;SDS011;55036;52.138;5.236;2023-09-12T06:47:45;35.90;;;26.33;;
68214;SDS011;55036;52.138;5.236;2023-09-12T06:50:12;37.58;;;26.10;;
68214;SDS011;55036;52.138;5.236;2023-09-12T06:52:41;39.53;;;28.70;;
68214;SDS011;55036;52.138;5.236;2023-09-12T06:55:08;35.53;;;25.25;;
68214;SDS011;55036;52.138;5.236;2023-09-12T06:57:35;38.00;;;26.63;;
68214;SDS011;55036;52.138;5.236;2023-09-12T07:00:02;33.88;;;25.73;;
68214;SDS011;55036;52.138;5.236;2023-09-12T07:02:33;44.90;;;31.45;;
68214;SDS011;55036;52.138;5.236;2023-09-12T07:05:00;35.65;;;25.52;;
68214;SDS011;55036;52.138;5.236;2023-09-12T07:07:26;35.00;;;24.38;;
68214;SDS011;55036;52.138;5.236;2023-09-12T07:09:53;37.75;;;28.40;;
68214;SDS011;55036;52.138;5.236;2023-09-12T07:12:37;36.72;;;27.20;;
68214;SDS011;55036;52.138;5.236;2023-09-12T07:15:04;35.20;;;26.33;;
68214;SDS011;55036;52.138;5.236;2023-09-12T07:17:31;42.33;;;29.40;;
68214;SDS011;55036;52.138;5.236;2023-09-12T07:19:58;45.28;;;30.95;;
68214;SDS011;55036;52.138;5.236;2023-09-12T07:22:25;39.95;;;29.67;;
68214;SDS011;55036;52.138;5.236;2023-09-12T07:24:52;33.45;;;24.35;;
68214;SDS011;55036;52.138;5.236;2023-09-12T07:27:19;34.58;;;26.00;;
68214;SDS011;55036;52.138;5.236;2023-09-12T07:29:45;43.03;;;29.00;;
68214;SDS011;55036;52.138;5.236;2023-09-12T07:32:12;38.63;;;25.55;;
68214;SDS011;55036;52.138;5.236;2023-09-12T07:34:39;36.40;;;26.10;;
68214;SDS011;55036;52.138;5.236;2023-09-12T07:37:06;42.20;;;29.70;;
68214;SDS011;55036;52.138;5.236;2023-09-12T07:39:33;44.70;;;30.88;;
68214;SDS011;55036;52.138;5.236;2023-09-12T07:42:00;42.65;;;30.20;;
68214;SDS011;55036;52.138;5.236;2023-09-12T07:44:28;47.03;;;31.08;;
68214;SDS011;55036;52.138;5.236;2023-09-12T07:46:55;48.53;;;32.00;;
68214;SDS011;55036;52.138;5.236;2023-09-12T07:49:22;40.90;;;25.70;;
68214;SDS011;55036;52.138;5.236;2023-09-12T07:51:50;47.25;;;31.02;;
68214;SDS011;55036;52.138;5.236;2023-09-12T07:54:17;42.92;;;30.23;;
68214;SDS011;55036;52.138;5.236;2023-09-12T07:56:44;45.45;;;29.20;;
68214;SDS011;55036;52.138;5.236;2023-09-12T07:59:11;42.28;;;27.75;;
68214;SDS011;55036;52.138;5.236;2023-09-12T08:01:40;45.90;;;30.25;;
68214;SDS011;55036;52.138;5.236;2023-09-12T08:04:07;42.10;;;28.48;;
68214;SDS011;55036;52.138;5.236;2023-09-12T08:06:34;51.40;;;32.47;;
68214;SDS011;55036;52.138;5.236;2023-09-12T08:09:20;35.03;;;24.30;;
68214;SDS011;55036;52.138;5.236;2023-09-12T08:11:47;39.20;;;27.60;;
68214;SDS011;55036;52.138;5.236;2023-09-12T08:14:14;47.55;;;31.25;;
68214;SDS011;55036;52.138;5.236;2023-09-12T08:16:40;40.97;;;26.92;;
68214;SDS011;55036;52.138;5.236;2023-09-12T08:19:07;41.88;;;27.45;;
68214;SDS011;55036;52.138;5.236;2023-09-12T08:21:37;49.28;;;31.60;;
68214;SDS011;55036;52.138;5.236;2023-09-12T08:24:04;48.95;;;29.92;;
68214;SDS011;55036;52.138;5.236;2023-09-12T08:26:31;49.28;;;30.35;;
68214;SDS011;55036;52.138;5.236;2023-09-12T08:28:58;43.55;;;28.25;;
68214;SDS011;55036;52.138;5.236;2023-09-12T08:31:25;52.78;;;32.40;;
68214;SDS011;55036;52.138;5.236;2023-09-12T08:33:53;47.67;;;30.58;;
68214;SDS011;55036;52.138;5.236;2023-09-12T08:36:20;42.25;;;25.40;;
68214;SDS011;55036;52.138;5.236;2023-09-12T08:38:47;57.70;;;33.42;;
68214;SDS011;55036;52.138;5.236;2023-09-12T08:41:14;40.20;;;27.75;;
68214;SDS011;55036;52.138;5.236;2023-09-12T08:43:40;54.58;;;31.77;;
68214;SDS011;55036;52.138;5.236;2023-09-12T08:46:08;51.15;;;31.75;;
68214;SDS011;55036;52.138;5.236;2023-09-12T08:48:37;49.10;;;31.35;;
68214;SDS011;55036;52.138;5.236;2023-09-12T08:51:06;50.58;;;31.00;;
68214;SDS011;55036;52.138;5.236;2023-09-12T08:53:33;58.90;;;31.58;;
68214;SDS011;55036;52.138;5.236;2023-09-12T08:56:02;45.40;;;28.48;;
68214;SDS011;55036;52.138;5.236;2023-09-12T08:58:31;53.50;;;30.90;;
68214;SDS011;55036;52.138;5.236;2023-09-12T09:00:59;47.28;;;28.10;;
68214;SDS011;55036;52.138;5.236;2023-09-12T09:03:27;52.92;;;30.55;;
68214;SDS011;55036;52.138;5.236;2023-09-12T09:05:55;53.78;;;32.00;;
68214;SDS011;55036;52.138;5.236;2023-09-12T09:08:23;56.63;;;32.60;;
68214;SDS011;55036;52.138;5.236;2023-09-12T09:10:55;51.45;;;30.73;;
68214;SDS011;55036;52.138;5.236;2023-09-12T09:13:23;49.70;;;31.00;;
68214;SDS011;55036;52.138;5.236;2023-09-12T09:15:56;46.47;;;30.10;;
68214;SDS011;55036;52.138;5.236;2023-09-12T09:21:17;47.85;;;30.08;;
68214;SDS011;55036;52.138;5.236;2023-09-12T09:23:52;52.70;;;31.65;;
68214;SDS011;55036;52.138;5.236;2023-09-12T09:26:20;50.25;;;31.70;;
68214;SDS011;55036;52.138;5.236;2023-09-12T09:29:03;45.08;;;30.45;;
68214;SDS011;55036;52.138;5.236;2023-09-12T09:31:32;47.97;;;32.00;;
68214;SDS011;55036;52.138;5.236;2023-09-12T09:33:59;50.85;;;32.97;;
68214;SDS011;55036;52.138;5.236;2023-09-12T09:36:27;50.85;;;31.80;;
68214;SDS011;55036;52.138;5.236;2023-09-12T09:38:55;51.47;;;35.38;;
68214;SDS011;55036;52.138;5.236;2023-09-12T09:41:26;50.25;;;34.55;;
68214;SDS011;55036;52.138;5.236;2023-09-12T09:43:53;46.67;;;32.65;;
68214;SDS011;55036;52.138;5.236;2023-09-12T09:46:19;46.42;;;31.75;;
68214;SDS011;55036;52.138;5.236;2023-09-12T09:48:50;44.20;;;32.70;;
68214;SDS011;55036;52.138;5.236;2023-09-12T09:51:18;46.17;;;31.70;;
68214;SDS011;55036;52.138;5.236;2023-09-12T09:53:45;48.35;;;33.47;;
68214;SDS011;55036;52.138;5.236;2023-09-12T09:56:15;49.63;;;33.47;;
68214;SDS011;55036;52.138;5.236;2023-09-12T09:58:48;46.05;;;32.63;;
68214;SDS011;55036;52.138;5.236;2023-09-12T10:01:22;49.90;;;34.50;;
68214;SDS011;55036;52.138;5.236;2023-09-12T10:03:56;45.55;;;32.97;;
68214;SDS011;55036;52.138;5.236;2023-09-12T10:06:25;42.97;;;31.35;;
68214;SDS011;55036;52.138;5.236;2023-09-12T10:08:54;46.28;;;31.35;;
68214;SDS011;55036;52.138;5.236;2023-09-12T10:11:25;40.63;;;28.77;;
68214;SDS011;55036;52.138;5.236;2023-09-12T10:13:58;44.70;;;30.23;;
68214;SDS011;55036;52.138;5.236;2023-09-12T10:16:33;40.22;;;28.55;;
68214;SDS011;55036;52.138;5.236;2023-09-12T10:21:33;44.25;;;29.60;;
68214;SDS011;55036;52.138;5.236;2023-09-12T10:24:02;43.58;;;30.40;;
68214;SDS011;55036;52.138;5.236;2023-09-12T10:26:32;39.92;;;28.30;;
68214;SDS011;55036;52.138;5.236;2023-09-12T10:29:01;45.45;;;31.63;;
68214;SDS011;55036;52.138;5.236;2023-09-12T10:31:29;45.17;;;30.25;;
68214;SDS011;55036;52.138;5.236;2023-09-12T10:33:58;43.65;;;29.42;;
68214;SDS011;55036;52.138;5.236;2023-09-12T10:36:26;47.78;;;30.85;;
68214;SDS011;55036;52.138;5.236;2023-09-12T10:38:54;36.47;;;26.33;;
68214;SDS011;55036;52.138;5.236;2023-09-12T10:41:23;37.83;;;27.90;;
68214;SDS011;55036;52.138;5.236;2023-09-12T10:43:50;43.72;;;29.20;;
68214;SDS011;55036;52.138;5.236;2023-09-12T10:46:20;38.90;;;26.85;;
68214;SDS011;55036;52.138;5.236;2023-09-12T10:48:47;39.58;;;27.77;;
68214;SDS011;55036;52.138;5.236;2023-09-12T10:51:15;39.25;;;26.30;;
68214;SDS011;55036;52.138;5.236;2023-09-12T10:53:46;36.50;;;26.55;;
68214;SDS011;55036;52.138;5.236;2023-09-12T10:56:16;35.60;;;26.45;;
68214;SDS011;55036;52.138;5.236;2023-09-12T11:01:36;36.70;;;27.08;;
68214;SDS011;55036;52.138;5.236;2023-09-12T11:06:46;31.15;;;22.70;;
68214;SDS011;55036;52.138;5.236;2023-09-12T11:11:46;36.88;;;27.05;;
68214;SDS011;55036;52.138;5.236;2023-09-12T11:14:15;35.85;;;24.77;;
68214;SDS011;55036;52.138;5.236;2023-09-12T11:16:43;31.55;;;23.77;;
68214;SDS011;55036;52.138;5.236;2023-09-12T11:19:30;33.42;;;24.88;;
68214;SDS011;55036;52.138;5.236;2023-09-12T11:24:52;30.20;;;22.13;;
68214;SDS011;55036;52.138;5.236;2023-09-12T11:27:23;28.30;;;21.93;;
68214;SDS011;55036;52.138;5.236;2023-09-12T11:29:51;32.75;;;22.48;;
68214;SDS011;55036;52.138;5.236;2023-09-12T11:32:30;38.38;;;24.40;;
68214;SDS011;55036;52.138;5.236;2023-09-12T11:34:59;35.90;;;22.23;;
68214;SDS011;55036;52.138;5.236;2023-09-12T11:37:30;28.73;;;21.85;;
68214;SDS011;55036;52.138;5.236;2023-09-12T11:39:59;28.70;;;21.30;;
68214;SDS011;55036;52.138;5.236;2023-09-12T11:42:26;31.00;;;20.88;;
68214;SDS011;55036;52.138;5.236;2023-09-12T11:44:53;29.35;;;21.63;;
68214;SDS011;55036;52.138;5.236;2023-09-12T11:47:20;25.65;;;19.55;;
68214;SDS011;55036;52.138;5.236;2023-09-12T11:49:49;29.00;;;20.85;;
68214;SDS011;55036;52.138;5.236;2023-09-12T11:52:16;26.33;;;20.23;;
68214;SDS011;55036;52.138;5.236;2023-09-12T11:54:43;27.50;;;19.95;;
68214;SDS011;55036;52.138;5.236;2023-09-12T11:57:14;24.60;;;18.23;;
68214;SDS011;55036;52.138;5.236;2023-09-12T11:59:42;25.90;;;20.20;;
68214;SDS011;55036;52.138;5.236;2023-09-12T12:02:15;22.83;;;17.50;;
68214;SDS011;55036;52.138;5.236;2023-09-12T12:04:42;25.15;;;18.20;;
68214;SDS011;55036;52.138;5.236;2023-09-12T12:07:10;27.65;;;19.25;;
68214;SDS011;55036;52.138;5.236;2023-09-12T12:09:37;24.00;;;18.33;;
68214;SDS011;55036;52.138;5.236;2023-09-12T12:12:11;22.48;;;17.73;;
68214;SDS011;55036;52.138;5.236;2023-09-12T12:14:39;28.30;;;20.42;;
68214;SDS011;55036;52.138;5.236;2023-09-12T12:17:09;26.02;;;19.00;;
68214;SDS011;55036;52.138;5.236;2023-09-12T12:19:44;25.90;;;17.50;;
68214;SDS011;55036;52.138;5.236;2023-09-12T12:22:12;26.35;;;18.42;;
68214;SDS011;55036;52.138;5.236;2023-09-12T12:24:39;29.20;;;21.10;;
68214;SDS011;55036;52.138;5.236;2023-09-12T12:27:17;29.25;;;21.13;;
68214;SDS011;55036;52.138;5.236;2023-09-12T12:29:44;25.20;;;19.45;;
68214;SDS011;55036;52.138;5.236;2023-09-12T12:32:14;31.05;;;19.95;;
68214;SDS011;55036;52.138;5.236;2023-09-12T12:34:42;24.38;;;17.25;;
68214;SDS011;55036;52.138;5.236;2023-09-12T12:37:35;23.80;;;17.33;;
68214;SDS011;55036;52.138;5.236;2023-09-12T12:40:03;24.08;;;18.20;;
68214;SDS011;55036;52.138;5.236;2023-09-12T12:42:34;23.48;;;17.80;;
68214;SDS011;55036;52.138;5.236;2023-09-12T12:45:20;22.40;;;16.50;;
68214;SDS011;55036;52.138;5.236;2023-09-12T12:47:59;21.17;;;15.85;;
68214;SDS011;55036;52.138;5.236;2023-09-12T12:50:27;21.70;;;15.32;;
68214;SDS011;55036;52.138;5.236;2023-09-12T12:52:54;18.52;;;13.95;;
68214;SDS011;55036;52.138;5.236;2023-09-12T12:55:21;17.63;;;13.55;;
68214;SDS011;55036;52.138;5.236;2023-09-12T12:57:52;20.00;;;14.50;;
68214;SDS011;55036;52.138;5.236;2023-09-12T13:00:18;21.92;;;14.00;;
68214;SDS011;55036;52.138;5.236;2023-09-12T13:02:45;20.02;;;15.73;;
68214;SDS011;55036;52.138;5.236;2023-09-12T13:05:25;22.98;;;14.30;;
68214;SDS011;55036;52.138;5.236;2023-09-12T13:07:56;23.65;;;15.95;;
68214;SDS011;55036;52.138;5.236;2023-09-12T13:10:23;20.48;;;14.07;;
68214;SDS011;55036;52.138;5.236;2023-09-12T13:12:50;21.00;;;15.07;;
68214;SDS011;55036;52.138;5.236;2023-09-12T13:15:17;19.98;;;14.93;;
68214;SDS011;55036;52.138;5.236;2023-09-12T13:17:45;19.77;;;15.10;;
68214;SDS011;55036;52.138;5.236;2023-09-12T13:20:12;19.23;;;14.90;;
68214;SDS011;55036;52.138;5.236;2023-09-12T13:22:39;16.77;;;12.90;;
68214;SDS011;55036;52.138;5.236;2023-09-12T13:25:06;16.15;;;12.73;;
68214;SDS011;55036;52.138;5.236;2023-09-12T13:27:33;19.83;;;14.27;;
68214;SDS011;55036;52.138;5.236;2023-09-12T13:30:00;15.88;;;12.25;;
68214;SDS011;55036;52.138;5.236;2023-09-12T13:32:27;17.38;;;12.48;;
68214;SDS011;55036;52.138;5.236;2023-09-12T13:34:54;15.20;;;10.75;;
68214;SDS011;55036;52.138;5.236;2023-09-12T13:37:21;18.33;;;11.23;;
68214;SDS011;55036;52.138;5.236;2023-09-12T13:39:48;13.60;;;10.20;;
68214;SDS011;55036;52.138;5.236;2023-09-12T13:42:16;12.77;;;9.00;;
68214;SDS011;55036;52.138;5.236;2023-09-12T13:44:47;15.63;;;9.23;;
68214;SDS011;55036;52.138;5.236;2023-09-12T13:47:15;16.23;;;8.82;;
68214;SDS011;55036;52.138;5.236;2023-09-12T13:49:49;11.82;;;6.75;;
68214;SDS011;55036;52.138;5.236;2023-09-12T13:52:22;8.48;;;6.25;;
68214;SDS011;55036;52.138;5.236;2023-09-12T13:54:49;6.80;;;5.22;;
68214;SDS011;55036;52.138;5.236;2023-09-12T13:57:16;9.02;;;4.90;;
68214;SDS011;55036;52.138;5.236;2023-09-12T13:59:43;6.78;;;4.07;;
68214;SDS011;55036;52.138;5.236;2023-09-12T14:02:12;3.55;;;2.92;;
68214;SDS011;55036;52.138;5.236;2023-09-12T14:04:39;4.38;;;2.50;;
68214;SDS011;55036;52.138;5.236;2023-09-12T14:07:08;3.22;;;2.40;;
68214;SDS011;55036;52.138;5.236;2023-09-12T14:09:36;4.53;;;2.83;;
68214;SDS011;55036;52.138;5.236;2023-09-12T14:12:04;4.40;;;2.78;;
68214;SDS011;55036;52.138;5.236;2023-09-12T14:14:40;3.15;;;2.72;;
68214;SDS011;55036;52.138;5.236;2023-09-12T14:17:10;5.38;;;2.67;;
68214;SDS011;55036;52.138;5.236;2023-09-12T14:19:38;3.83;;;2.95;;
68214;SDS011;55036;52.138;5.236;2023-09-12T14:22:06;3.88;;;2.72;;
68214;SDS011;55036;52.138;5.236;2023-09-12T14:24:33;4.18;;;2.80;;
68214;SDS011;55036;52.138;5.236;2023-09-12T14:27:01;3.72;;;2.63;;
68214;SDS011;55036;52.138;5.236;2023-09-12T14:29:29;4.70;;;2.90;;
68214;SDS011;55036;52.138;5.236;2023-09-12T14:31:56;5.57;;;2.10;;
68214;SDS011;55036;52.138;5.236;2023-09-12T14:34:26;3.65;;;2.50;;
68214;SDS011;55036;52.138;5.236;2023-09-12T14:36:54;6.50;;;2.65;;
68214;SDS011;55036;52.138;5.236;2023-09-12T14:39:22;3.95;;;2.38;;
68214;SDS011;55036;52.138;5.236;2023-09-12T14:41:50;4.20;;;2.92;;
68214;SDS011;55036;52.138;5.236;2023-09-12T14:44:21;4.47;;;2.97;;
68214;SDS011;55036;52.138;5.236;2023-09-12T14:46:48;7.18;;;2.72;;
68214;SDS011;55036;52.138;5.236;2023-09-12T14:49:15;5.22;;;2.97;;
68214;SDS011;55036;52.138;5.236;2023-09-12T14:51:42;5.25;;;3.10;;
68214;SDS011;55036;52.138;5.236;2023-09-12T14:54:09;3.80;;;2.60;;
68214;SDS011;55036;52.138;5.236;2023-09-12T14:56:37;4.65;;;3.08;;
68214;SDS011;55036;52.138;5.236;2023-09-12T14:59:04;4.38;;;2.35;;
68214;SDS011;55036;52.138;5.236;2023-09-12T15:01:31;6.15;;;2.95;;
68214;SDS011;55036;52.138;5.236;2023-09-12T15:03:58;5.10;;;2.53;;
68214;SDS011;55036;52.138;5.236;2023-09-12T15:06:25;5.63;;;3.20;;
68214;SDS011;55036;52.138;5.236;2023-09-12T15:08:52;4.82;;;2.65;;
68214;SDS011;55036;52.138;5.236;2023-09-12T15:11:19;4.60;;;3.10;;
68214;SDS011;55036;52.138;5.236;2023-09-12T15:13:46;4.88;;;3.28;;
68214;SDS011;55036;52.138;5.236;2023-09-12T15:16:14;3.70;;;3.05;;
68214;SDS011;55036;52.138;5.236;2023-09-12T15:18:41;4.53;;;2.75;;
68214;SDS011;55036;52.138;5.236;2023-09-12T15:21:08;6.63;;;3.38;;
68214;SDS011;55036;52.138;5.236;2023-09-12T15:23:35;4.00;;;3.22;;
68214;SDS011;55036;52.138;5.236;2023-09-12T15:26:02;4.13;;;2.58;;
68214;SDS011;55036;52.138;5.236;2023-09-12T15:28:28;4.78;;;3.03;;